Airfield :







YOU CAN JOIN US ON...

 
LOGIN :

Register | Disclaimer

   EN    FR    IT 

 









Legend :    VFR   Marginal VFR   IFR   Intensive IFR   Very Intensive IFR
Visi :
Ceiling :
>= 8 km
>= 3000ft
5 to 8 km
1000 to 3000 ft
1500m to 5 km
500 to 1000 ft
800 to 1500m
200 to 500 ft
< 800m
< 200 ft
Symbols :   Thunderstorms  Fog  Heavy snow  Heavy precipitations  Wind > 20 kt







- Airport Elevation : 40 ft
- IATA code : YRF


CYCA - Cartwright

CURRENT METAR :
  • 231402Z AUTO 03014G21KT 5/8SM -SN VV008 M04/M05 A2954 RMK PRESFR SLP007

EXPIRED METARs :
  • 231314Z AUTO 03014G20KT 3/4SM -SN VV009 M04/M05 A2961 RMK PRESFR SLP031
  • 231312Z AUTO 03013G20KT 3/4SM -SN VV008 M04/M05 A2962 RMK PRESFR SLP032
  • 231200Z AUTO 03018G24KT 1SM -SN BKN012 OVC020 M05/M07 A2966 RMK PRESFR SLP048
  • 231148Z AUTO 04018KT 1 3/4SM -SN BKN015 BKN020 OVC030 M05/M07 A2969 RMK PRESFR SLP055
  • 231136Z AUTO 03015G21KT 3SM -SN FEW012 BKN020 BKN026 OVC030 M06/M07 A2970 RMK SLP059
  • 231128Z AUTO 03016G22KT 2SM -SN SCT010 OVC030 M06/M07 A2970 RMK SLP060

TAF TAF CYCA
Valid from the 23 at 14:00 until the 24 at 02:00 UTC


231338Z 2314/2402 03015G25KT 3/4SM -SN VV008
TEMPO 2314/2321 2SM -SN BKN015 OVC030
FM232100 02012KT 21/2SM -SN BKN008 OVC015
FM240100 34010KT 4SM -SN SCT008 BKN015 OVC030 RMK FCST BASED ON AUTO OBS. NXT FCST BY 232000Z
CZQX FIR / North America



MET'MAP, your aeronautical weather chart ! - Copyright ORBIFLY December 2007 - Disclaimer

ORBIFLY MET'MAP TEAM :

Programming & Development : Alexandra Zaïnal
Concept & Development : Baudouin d'Aumeries
Co-Development & Prog : Marc-Olivier Méhu
Technical & hardware support : Manuel Goepfert

Contact : metmap@orbifly.com




SOURCES & CREDITS :

   NOAA